sensor_id;sensor_type;location;lat;lon;timestamp;pressure;altitude;pressure_sealevel;temperature;humidity
61119;BME280;51448;51.660;5.824;2023-01-19T00:01:40;99990.47;;;1.60;100.00
61119;BME280;51448;51.660;5.824;2023-01-19T00:04:08;99987.00;;;1.63;100.00
61119;BME280;51448;51.660;5.824;2023-01-19T00:06:35;99993.88;;;1.67;100.00
61119;BME280;51448;51.660;5.824;2023-01-19T00:09:03;99980.94;;;1.68;100.00
61119;BME280;51448;51.660;5.824;2023-01-19T00:11:30;99985.22;;;1.71;100.00
61119;BME280;51448;51.660;5.824;2023-01-19T00:13:58;99979.16;;;1.72;100.00
61119;BME280;51448;51.660;5.824;2023-01-19T00:16:25;99982.59;;;1.75;100.00
61119;BME280;51448;51.660;5.824;2023-01-19T00:18:53;99978.25;;;1.76;100.00
61119;BME280;51448;51.660;5.824;2023-01-19T00:21:21;99992.09;;;1.78;100.00
61119;BME280;51448;51.660;5.824;2023-01-19T00:23:49;99988.63;;;1.79;100.00
61119;BME280;51448;51.660;5.824;2023-01-19T00:26:19;99979.13;;;1.79;100.00
61119;BME280;51448;51.660;5.824;2023-01-19T00:28:48;99980.84;;;1.79;100.00
61119;BME280;51448;51.660;5.824;2023-01-19T00:31:17;99981.72;;;1.79;100.00
61119;BME280;51448;51.660;5.824;2023-01-19T00:33:47;99987.78;;;1.78;100.00
61119;BME280;51448;51.660;5.824;2023-01-19T00:36:15;99997.31;;;1.76;100.00
61119;BME280;51448;51.660;5.824;2023-01-19T00:38:43;99986.03;;;1.77;100.00
61119;BME280;51448;51.660;5.824;2023-01-19T00:41:10;99983.44;;;1.77;100.00
61119;BME280;51448;51.660;5.824;2023-01-19T00:43:38;99983.44;;;1.79;100.00
61119;BME280;51448;51.660;5.824;2023-01-19T00:46:05;99987.78;;;1.77;100.00
61119;BME280;51448;51.660;5.824;2023-01-19T00:48:33;99983.44;;;1.76;100.00
61119;BME280;51448;51.660;5.824;2023-01-19T00:51:00;99990.38;;;1.75;100.00
61119;BME280;51448;51.660;5.824;2023-01-19T00:53:28;99989.53;;;1.75;100.00
61119;BME280;51448;51.660;5.824;2023-01-19T00:55:58;99989.53;;;1.75;100.00
61119;BME280;51448;51.660;5.824;2023-01-19T00:58:26;99986.94;;;1.75;100.00
61119;BME280;51448;51.660;5.824;2023-01-19T01:00:53;99990.38;;;1.74;100.00
61119;BME280;51448;51.660;5.824;2023-01-19T01:03:23;99986.94;;;1.73;100.00
61119;BME280;51448;51.660;5.824;2023-01-19T01:05:54;99987.78;;;1.74;100.00
61119;BME280;51448;51.660;5.824;2023-01-19T01:08:21;99980.00;;;1.74;100.00
61119;BME280;51448;51.660;5.824;2023-01-19T01:10:50;99986.94;;;1.75;100.00
61119;BME280;51448;51.660;5.824;2023-01-19T01:13:17;99983.44;;;1.76;100.00
61119;BME280;51448;51.660;5.824;2023-01-19T01:15:51;99980.84;;;1.76;100.00
61119;BME280;51448;51.660;5.824;2023-01-19T01:18:20;99980.00;;;1.77;100.00
61119;BME280;51448;51.660;5.824;2023-01-19T01:20:48;99985.19;;;1.77;100.00
61119;BME280;51448;51.660;5.824;2023-01-19T01:23:15;99987.78;;;1.78;100.00
61119;BME280;51448;51.660;5.824;2023-01-19T01:25:48;99983.44;;;1.79;100.00
61119;BME280;51448;51.660;5.824;2023-01-19T01:28:16;99986.03;;;1.79;100.00
61119;BME280;51448;51.660;5.824;2023-01-19T01:30:43;99987.75;;;1.80;100.00
61119;BME280;51448;51.660;5.824;2023-01-19T01:33:11;99992.09;;;1.79;100.00
61119;BME280;51448;51.660;5.824;2023-01-19T01:35:39;100001.59;;;1.80;100.00
61119;BME280;51448;51.660;5.824;2023-01-19T01:38:07;100000.72;;;1.81;100.00
61119;BME280;51448;51.660;5.824;2023-01-19T01:40:38;99989.50;;;1.81;100.00
61119;BME280;51448;51.660;5.824;2023-01-19T01:43:14;99982.56;;;1.81;100.00
61119;BME280;51448;51.660;5.824;2023-01-19T01:45:43;99984.31;;;1.81;100.00
61119;BME280;51448;51.660;5.824;2023-01-19T01:48:24;99987.75;;;1.83;100.00
61119;BME280;51448;51.660;5.824;2023-01-19T01:50:59;99990.38;;;1.78;100.00
61119;BME280;51448;51.660;5.824;2023-01-19T01:56:35;99985.19;;;1.77;100.00
61119;BME280;51448;51.660;5.824;2023-01-19T01:59:08;99972.22;;;1.75;100.00
61119;BME280;51448;51.660;5.824;2023-01-19T02:01:44;99980.84;;;1.76;100.00
61119;BME280;51448;51.660;5.824;2023-01-19T02:04:30;99982.59;;;1.75;100.00
61119;BME280;51448;51.660;5.824;2023-01-19T02:06:58;99983.44;;;1.77;100.00
61119;BME280;51448;51.660;5.824;2023-01-19T02:09:44;99983.44;;;1.76;100.00
61119;BME280;51448;51.660;5.824;2023-01-19T02:12:31;99989.53;;;1.75;100.00
61119;BME280;51448;51.660;5.824;2023-01-19T02:15:18;99989.53;;;1.72;100.00
61119;BME280;51448;51.660;5.824;2023-01-19T02:17:46;99992.16;;;1.69;100.00
61119;BME280;51448;51.660;5.824;2023-01-19T02:20:15;99989.59;;;1.63;100.00
61119;BME280;51448;51.660;5.824;2023-01-19T02:22:46;99992.22;;;1.56;100.00
61119;BME280;51448;51.660;5.824;2023-01-19T02:25:17;99993.09;;;1.52;100.00
61119;BME280;51448;51.660;5.824;2023-01-19T02:27:47;99989.66;;;1.49;100.00
61119;BME280;51448;51.660;5.824;2023-01-19T02:30:18;99991.41;;;1.44;100.00
61119;BME280;51448;51.660;5.824;2023-01-19T02:32:45;99996.59;;;1.39;100.00
61119;BME280;51448;51.660;5.824;2023-01-19T02:35:13;99984.53;;;1.33;100.00
61119;BME280;51448;51.660;5.824;2023-01-19T02:37:43;100000.97;;;1.28;100.00
61119;BME280;51448;51.660;5.824;2023-01-19T02:40:14;99987.16;;;1.23;100.00
61119;BME280;51448;51.660;5.824;2023-01-19T02:42:49;100001.00;;;1.17;100.00
61119;BME280;51448;51.660;5.824;2023-01-19T02:45:20;100001.88;;;1.11;100.00
61119;BME280;51448;51.660;5.824;2023-01-19T02:47:50;100005.34;;;1.07;100.00
61119;BME280;51448;51.660;5.824;2023-01-19T02:50:40;100001.91;;;1.07;100.00
61119;BME280;51448;51.660;5.824;2023-01-19T02:53:37;100003.63;;;1.03;100.00
61119;BME280;51448;51.660;5.824;2023-01-19T03:13:29;100019.22;;;0.78;100.00
61119;BME280;51448;51.660;5.824;2023-01-19T03:16:25;100015.75;;;0.76;100.00
61119;BME280;51448;51.660;5.824;2023-01-19T03:19:07;100020.94;;;0.75;100.00
61119;BME280;51448;51.660;5.824;2023-01-19T03:21:37;100024.38;;;0.75;100.00
61119;BME280;51448;51.660;5.824;2023-01-19T03:24:10;100023.53;;;0.76;100.00
61119;BME280;51448;51.660;5.824;2023-01-19T03:26:43;100020.94;;;0.76;100.00
61119;BME280;51448;51.660;5.824;2023-01-19T03:29:16;100022.66;;;0.76;100.00
61119;BME280;51448;51.660;5.824;2023-01-19T03:31:49;100027.81;;;0.77;100.00
61119;BME280;51448;51.660;5.824;2023-01-19T03:34:20;100043.38;;;0.79;100.00
61119;BME280;51448;51.660;5.824;2023-01-19T03:36:56;100028.69;;;0.79;100.00
61119;BME280;51448;51.660;5.824;2023-01-19T03:39:29;100037.31;;;0.77;100.00
61119;BME280;51448;51.660;5.824;2023-01-19T03:42:02;100045.09;;;0.75;100.00
61119;BME280;51448;51.660;5.824;2023-01-19T03:44:36;100060.63;;;0.71;100.00
61119;BME280;51448;51.660;5.824;2023-01-19T03:47:06;100058.03;;;0.60;100.00
61119;BME280;51448;51.660;5.824;2023-01-19T03:49:37;100064.06;;;0.54;100.00
61119;BME280;51448;51.660;5.824;2023-01-19T03:52:09;100056.31;;;0.53;100.00
61119;BME280;51448;51.660;5.824;2023-01-19T03:54:37;100070.13;;;0.52;100.00
61119;BME280;51448;51.660;5.824;2023-01-19T03:57:07;100063.19;;;0.51;100.00
61119;BME280;51448;51.660;5.824;2023-01-19T03:59:35;100063.22;;;0.49;100.00
61119;BME280;51448;51.660;5.824;2023-01-19T04:02:02;100069.25;;;0.50;100.00
61119;BME280;51448;51.660;5.824;2023-01-19T04:04:30;100077.88;;;0.50;100.00
61119;BME280;51448;51.660;5.824;2023-01-19T04:06:57;100072.69;;;0.49;100.00
61119;BME280;51448;51.660;5.824;2023-01-19T04:09:25;100080.47;;;0.47;100.00
61119;BME280;51448;51.660;5.824;2023-01-19T04:11:53;100088.22;;;0.49;100.00
61119;BME280;51448;51.660;5.824;2023-01-19T04:14:23;100084.78;;;0.50;100.00
61119;BME280;51448;51.660;5.824;2023-01-19T04:16:50;100089.94;;;0.48;100.00
61119;BME280;51448;51.660;5.824;2023-01-19T04:19:18;100083.91;;;0.48;100.00
61119;BME280;51448;51.660;5.824;2023-01-19T04:21:48;100086.50;;;0.46;100.00
61119;BME280;51448;51.660;5.824;2023-01-19T04:24:17;100086.47;;;0.45;100.00
61119;BME280;51448;51.660;5.824;2023-01-19T04:26:44;100089.06;;;0.45;100.00
61119;BME280;51448;51.660;5.824;2023-01-19T04:29:12;100083.88;;;0.45;100.00
61119;BME280;51448;51.660;5.824;2023-01-19T04:31:40;100077.88;;;0.44;100.00
61119;BME280;51448;51.660;5.824;2023-01-19T04:34:08;100077.00;;;0.44;100.00
61119;BME280;51448;51.660;5.824;2023-01-19T04:36:36;100065.81;;;0.43;100.00
61119;BME280;51448;51.660;5.824;2023-01-19T04:39:03;100070.97;;;0.42;100.00
61119;BME280;51448;51.660;5.824;2023-01-19T04:41:31;100076.16;;;0.42;100.00
61119;BME280;51448;51.660;5.824;2023-01-19T04:43:58;100070.97;;;0.42;100.00
61119;BME280;51448;51.660;5.824;2023-01-19T04:46:26;100080.44;;;0.43;100.00
61119;BME280;51448;51.660;5.824;2023-01-19T04:48:54;100072.69;;;0.44;100.00
61119;BME280;51448;51.660;5.824;2023-01-19T04:51:22;100053.72;;;0.44;100.00
61119;BME280;51448;51.660;5.824;2023-01-19T04:53:49;100045.97;;;0.44;100.00
61119;BME280;51448;51.660;5.824;2023-01-19T04:56:17;100056.31;;;0.44;100.00
61119;BME280;51448;51.660;5.824;2023-01-19T04:58:44;100054.59;;;0.46;100.00
61119;BME280;51448;51.660;5.824;2023-01-19T05:01:12;100057.19;;;0.47;100.00
61119;BME280;51448;51.660;5.824;2023-01-19T05:03:39;100055.44;;;0.48;100.00
61119;BME280;51448;51.660;5.824;2023-01-19T05:06:07;100049.41;;;0.49;100.00
61119;BME280;51448;51.660;5.824;2023-01-19T05:08:35;100050.28;;;0.49;100.00
61119;BME280;51448;51.660;5.824;2023-01-19T05:11:03;100045.97;;;0.50;100.00
61119;BME280;51448;51.660;5.824;2023-01-19T05:13:31;100050.28;;;0.52;100.00
61119;BME280;51448;51.660;5.824;2023-01-19T05:16:02;100059.75;;;0.55;100.00
61119;BME280;51448;51.660;5.824;2023-01-19T05:18:31;100045.97;;;0.54;100.00
61119;BME280;51448;51.660;5.824;2023-01-19T05:21:02;100054.56;;;0.55;100.00
61119;BME280;51448;51.660;5.824;2023-01-19T05:23:31;100059.75;;;0.55;100.00
61119;BME280;51448;51.660;5.824;2023-01-19T05:26:01;100077.03;;;0.57;100.00
61119;BME280;51448;51.660;5.824;2023-01-19T05:28:52;100077.03;;;0.56;100.00
61119;BME280;51448;51.660;5.824;2023-01-19T05:31:23;100073.56;;;0.57;100.00
61119;BME280;51448;51.660;5.824;2023-01-19T05:34:00;100081.31;;;0.58;100.00
61119;BME280;51448;51.660;5.824;2023-01-19T05:36:36;100079.59;;;0.56;100.00
61119;BME280;51448;51.660;5.824;2023-01-19T05:39:09;100082.19;;;0.57;100.00
61119;BME280;51448;51.660;5.824;2023-01-19T05:41:39;100086.50;;;0.58;100.00
61119;BME280;51448;51.660;5.824;2023-01-19T05:44:11;100095.13;;;0.60;100.00
61119;BME280;51448;51.660;5.824;2023-01-19T05:46:43;100093.41;;;0.61;100.00
61119;BME280;51448;51.660;5.824;2023-01-19T05:49:11;100108.06;;;0.62;100.00
61119;BME280;51448;51.660;5.824;2023-01-19T05:51:39;100112.38;;;0.65;100.00
61119;BME280;51448;51.660;5.824;2023-01-19T05:54:13;100113.25;;;0.65;100.00
61119;BME280;51448;51.660;5.824;2023-01-19T05:56:42;100109.78;;;0.65;100.00
61119;BME280;51448;51.660;5.824;2023-01-19T05:59:12;100108.06;;;0.65;100.00
61119;BME280;51448;51.660;5.824;2023-01-19T06:01:45;100104.63;;;0.66;100.00
61119;BME280;51448;51.660;5.824;2023-01-19T06:04:44;100114.13;;;0.64;100.00
61119;BME280;51448;51.660;5.824;2023-01-19T06:08:05;100121.03;;;0.64;100.00
61119;BME280;51448;51.660;5.824;2023-01-19T06:10:36;100128.75;;;0.65;100.00
61119;BME280;51448;51.660;5.824;2023-01-19T06:13:06;100128.75;;;0.65;100.00
61119;BME280;51448;51.660;5.824;2023-01-19T06:15:38;100152.94;;;0.67;100.00
61119;BME280;51448;51.660;5.824;2023-01-19T06:18:06;100147.75;;;0.69;100.00
61119;BME280;51448;51.660;5.824;2023-01-19T06:20:34;100172.78;;;0.71;100.00
61119;BME280;51448;51.660;5.824;2023-01-19T06:23:08;100173.63;;;0.73;100.00
61119;BME280;51448;51.660;5.824;2023-01-19T06:25:37;100177.13;;;0.74;100.00
61119;BME280;51448;51.660;5.824;2023-01-19T06:28:08;100176.25;;;0.76;100.00
61119;BME280;51448;51.660;5.824;2023-01-19T06:31:14;100170.19;;;0.77;100.00
61119;BME280;51448;51.660;5.824;2023-01-19T06:34:12;100181.44;;;0.76;100.00
61119;BME280;51448;51.660;5.824;2023-01-19T06:36:40;100174.53;;;0.78;100.00
61119;BME280;51448;51.660;5.824;2023-01-19T06:39:08;100190.06;;;0.80;100.00
61119;BME280;51448;51.660;5.824;2023-01-19T06:41:37;100187.47;;;0.82;100.00
61119;BME280;51448;51.660;5.824;2023-01-19T06:44:05;100190.06;;;0.82;100.00
61119;BME280;51448;51.660;5.824;2023-01-19T06:46:32;100190.06;;;0.83;100.00
61119;BME280;51448;51.660;5.824;2023-01-19T06:49:02;100191.78;;;0.83;100.00
61119;BME280;51448;51.660;5.824;2023-01-19T06:51:30;100191.81;;;0.84;100.00
61119;BME280;51448;51.660;5.824;2023-01-19T06:53:59;100201.28;;;0.84;100.00
61119;BME280;51448;51.660;5.824;2023-01-19T06:56:27;100212.50;;;0.84;100.00
61119;BME280;51448;51.660;5.824;2023-01-19T06:58:54;100206.44;;;0.84;100.00
61119;BME280;51448;51.660;5.824;2023-01-19T07:01:22;100215.97;;;0.85;100.00
61119;BME280;51448;51.660;5.824;2023-01-19T07:03:50;100208.19;;;0.85;100.00
61119;BME280;51448;51.660;5.824;2023-01-19T07:06:18;100218.56;;;0.86;100.00
61119;BME280;51448;51.660;5.824;2023-01-19T07:08:46;100220.25;;;0.86;100.00
61119;BME280;51448;51.660;5.824;2023-01-19T07:11:13;100228.03;;;0.87;100.00
61119;BME280;51448;51.660;5.824;2023-01-19T07:13:56;100226.31;;;0.88;100.00
61119;BME280;51448;51.660;5.824;2023-01-19T07:16:24;100230.63;;;0.87;100.00
61119;BME280;51448;51.660;5.824;2023-01-19T07:18:52;100228.91;;;0.88;100.00
61119;BME280;51448;51.660;5.824;2023-01-19T07:21:20;100225.47;;;0.89;100.00
61119;BME280;51448;51.660;5.824;2023-01-19T07:23:52;100238.41;;;0.89;100.00
61119;BME280;51448;51.660;5.824;2023-01-19T07:26:20;100237.53;;;0.90;100.00
61119;BME280;51448;51.660;5.824;2023-01-19T07:28:51;100241.00;;;0.89;100.00
61119;BME280;51448;51.660;5.824;2023-01-19T07:31:18;100242.72;;;0.90;100.00
61119;BME280;51448;51.660;5.824;2023-01-19T07:33:46;100248.78;;;0.90;100.00
61119;BME280;51448;51.660;5.824;2023-01-19T07:36:14;100249.63;;;0.91;100.00
61119;BME280;51448;51.660;5.824;2023-01-19T07:38:41;100252.22;;;0.92;100.00
61119;BME280;51448;51.660;5.824;2023-01-19T07:41:09;100253.09;;;0.93;100.00
61119;BME280;51448;51.660;5.824;2023-01-19T07:43:37;100259.13;;;0.95;100.00
61119;BME280;51448;51.660;5.824;2023-01-19T07:46:05;100260.84;;;0.96;100.00
61119;BME280;51448;51.660;5.824;2023-01-19T07:48:34;100261.72;;;0.95;100.00
61119;BME280;51448;51.660;5.824;2023-01-19T07:51:03;100268.63;;;0.96;100.00
61119;BME280;51448;51.660;5.824;2023-01-19T07:53:38;100280.72;;;0.97;100.00
61119;BME280;51448;51.660;5.824;2023-01-19T07:56:06;100282.44;;;0.96;100.00
61119;BME280;51448;51.660;5.824;2023-01-19T07:58:34;100292.78;;;0.98;100.00
61119;BME280;51448;51.660;5.824;2023-01-19T08:01:10;100292.81;;;1.01;100.00
61119;BME280;51448;51.660;5.824;2023-01-19T08:03:39;100287.63;;;1.01;100.00
61119;BME280;51448;51.660;5.824;2023-01-19T08:06:15;100292.81;;;1.03;100.00
61119;BME280;51448;51.660;5.824;2023-01-19T08:08:48;100284.16;;;0.96;100.00
61119;BME280;51448;51.660;5.824;2023-01-19T08:11:16;100296.25;;;0.97;100.00
61119;BME280;51448;51.660;5.824;2023-01-19T08:13:44;100297.13;;;1.05;100.00
61119;BME280;51448;51.660;5.824;2023-01-19T08:16:11;100303.19;;;1.07;100.00
61119;BME280;51448;51.660;5.824;2023-01-19T08:18:39;100304.91;;;1.10;100.00
61119;BME280;51448;51.660;5.824;2023-01-19T08:21:07;100311.84;;;1.11;100.00
61119;BME280;51448;51.660;5.824;2023-01-19T08:23:35;100312.69;;;1.11;100.00
61119;BME280;51448;51.660;5.824;2023-01-19T08:26:20;100314.41;;;1.14;100.00
61119;BME280;51448;51.660;5.824;2023-01-19T08:29:00;100318.75;;;1.13;100.00
61119;BME280;51448;51.660;5.824;2023-01-19T08:31:31;100331.69;;;1.13;100.00
61119;BME280;51448;51.660;5.824;2023-01-19T08:33:59;100324.78;;;1.15;100.00
61119;BME280;51448;51.660;5.824;2023-01-19T08:36:26;100336.84;;;1.16;100.00
61119;BME280;51448;51.660;5.824;2023-01-19T08:38:54;100334.28;;;1.19;100.00
61119;BME280;51448;51.660;5.824;2023-01-19T08:41:21;100336.00;;;1.20;100.00
61119;BME280;51448;51.660;5.824;2023-01-19T08:43:49;100344.66;;;1.21;100.00
61119;BME280;51448;51.660;5.824;2023-01-19T08:46:16;100356.75;;;1.24;100.00
61119;BME280;51448;51.660;5.824;2023-01-19T08:48:47;100361.94;;;1.24;100.00
61119;BME280;51448;51.660;5.824;2023-01-19T08:51:15;100356.75;;;1.24;100.00
61119;BME280;51448;51.660;5.824;2023-01-19T08:53:44;100363.66;;;1.26;100.00
61119;BME280;51448;51.660;5.824;2023-01-19T08:56:12;100359.34;;;1.28;100.00
61119;BME280;51448;51.660;5.824;2023-01-19T08:58:42;100361.97;;;1.31;100.00
61119;BME280;51448;51.660;5.824;2023-01-19T09:01:15;100369.72;;;1.34;100.00
61119;BME280;51448;51.660;5.824;2023-01-19T09:03:45;100364.56;;;1.37;100.00
61119;BME280;51448;51.660;5.824;2023-01-19T09:06:14;100373.19;;;1.41;100.00
61119;BME280;51448;51.660;5.824;2023-01-19T09:08:47;100372.31;;;1.45;100.00
61119;BME280;51448;51.660;5.824;2023-01-19T09:11:15;100378.41;;;1.52;100.00
61119;BME280;51448;51.660;5.824;2023-01-19T09:13:43;100379.25;;;1.61;100.00
61119;BME280;51448;51.660;5.824;2023-01-19T09:16:12;100379.28;;;1.68;100.00
61119;BME280;51448;51.660;5.824;2023-01-19T09:18:41;100383.59;;;1.72;100.00
61119;BME280;51448;51.660;5.824;2023-01-19T09:21:09;100388.81;;;1.76;100.00
61119;BME280;51448;51.660;5.824;2023-01-19T09:23:37;100387.94;;;1.79;100.00
61119;BME280;51448;51.660;5.824;2023-01-19T09:26:04;100398.31;;;1.82;100.00
61119;BME280;51448;51.660;5.824;2023-01-19T09:28:34;100393.97;;;1.84;100.00
61119;BME280;51448;51.660;5.824;2023-01-19T09:31:06;100390.53;;;1.85;100.00
61119;BME280;51448;51.660;5.824;2023-01-19T09:33:34;100392.25;;;1.81;100.00
61119;BME280;51448;51.660;5.824;2023-01-19T09:36:02;100390.53;;;1.79;100.00
61119;BME280;51448;51.660;5.824;2023-01-19T09:38:30;100401.75;;;1.75;100.00
61119;BME280;51448;51.660;5.824;2023-01-19T09:40:59;100398.28;;;1.70;100.00
61119;BME280;51448;51.660;5.824;2023-01-19T09:46:09;100405.19;;;1.58;100.00
61119;BME280;51448;51.660;5.824;2023-01-19T09:51:19;100412.09;;;1.53;100.00
61119;BME280;51448;51.660;5.824;2023-01-19T09:54:00;100420.75;;;1.54;100.00
61119;BME280;51448;51.660;5.824;2023-01-19T09:56:31;100414.69;;;1.53;100.00
61119;BME280;51448;51.660;5.824;2023-01-19T09:59:00;100419.88;;;1.55;100.00
61119;BME280;51448;51.660;5.824;2023-01-19T10:10:58;100432.84;;;1.56;100.00
61119;BME280;51448;51.660;5.824;2023-01-19T10:13:40;100441.47;;;1.57;100.00
61119;BME280;51448;51.660;5.824;2023-01-19T10:19:26;100446.66;;;1.54;100.00
61119;BME280;51448;51.660;5.824;2023-01-19T10:25:03;100458.75;;;1.55;100.00
61119;BME280;51448;51.660;5.824;2023-01-19T10:27:39;100463.94;;;1.55;100.00
61119;BME280;51448;51.660;5.824;2023-01-19T10:30:08;100454.44;;;1.58;100.00
61119;BME280;51448;51.660;5.824;2023-01-19T10:32:45;100449.25;;;1.61;100.00
61119;BME280;51448;51.660;5.824;2023-01-19T10:35:15;100457.06;;;1.66;100.00
61119;BME280;51448;51.660;5.824;2023-01-19T10:37:54;100456.19;;;1.72;100.00
61119;BME280;51448;51.660;5.824;2023-01-19T10:40:35;100451.03;;;1.75;100.00
61119;BME280;51448;51.660;5.824;2023-01-19T10:43:34;100454.50;;;1.77;100.00
61119;BME280;51448;51.660;5.824;2023-01-19T10:46:18;100450.19;;;1.79;100.00
61119;BME280;51448;51.660;5.824;2023-01-19T10:48:50;100449.31;;;1.81;100.00
61119;BME280;51448;51.660;5.824;2023-01-19T10:51:20;100456.22;;;1.86;100.00
61119;BME280;51448;51.660;5.824;2023-01-19T10:54:02;100461.44;;;1.93;100.00
61119;BME280;51448;51.660;5.824;2023-01-19T10:56:34;100458.81;;;1.96;100.00
61119;BME280;51448;51.660;5.824;2023-01-19T10:59:05;100460.56;;;2.00;100.00
61119;BME280;51448;51.660;5.824;2023-01-19T11:02:03;100457.09;;;2.05;100.00
61119;BME280;51448;51.660;5.824;2023-01-19T11:04:38;100458.84;;;2.06;100.00
61119;BME280;51448;51.660;5.824;2023-01-19T11:10:18;100458.84;;;2.12;100.00
61119;BME280;51448;51.660;5.824;2023-01-19T11:12:56;100457.13;;;2.14;100.00
61119;BME280;51448;51.660;5.824;2023-01-19T11:18:02;100466.66;;;2.19;100.00
61119;BME280;51448;51.660;5.824;2023-01-19T11:20:39;100464.06;;;2.24;100.00
61119;BME280;51448;51.660;5.824;2023-01-19T11:25:58;100470.09;;;2.32;100.00
61119;BME280;51448;51.660;5.824;2023-01-19T11:28:36;100476.16;;;2.37;100.00
61119;BME280;51448;51.660;5.824;2023-01-19T11:33:52;100462.28;;;2.48;100.00
61119;BME280;51448;51.660;5.824;2023-01-19T11:36:32;100456.22;;;2.52;100.00
61119;BME280;51448;51.660;5.824;2023-01-19T11:39:24;100461.41;;;2.59;100.00
61119;BME280;51448;51.660;5.824;2023-01-19T11:41:57;100460.56;;;2.65;100.00
61119;BME280;51448;51.660;5.824;2023-01-19T11:44:34;100462.28;;;2.69;100.00
61119;BME280;51448;51.660;5.824;2023-01-19T11:47:11;100457.06;;;2.75;100.00
61119;BME280;51448;51.660;5.824;2023-01-19T11:49:58;100457.91;;;2.82;100.00
61119;BME280;51448;51.660;5.824;2023-01-19T11:52:36;100457.03;;;2.88;100.00
61119;BME280;51448;51.660;5.824;2023-01-19T11:58:32;100448.34;;;3.04;100.00
61119;BME280;51448;51.660;5.824;2023-01-19T12:01:19;100451.75;;;3.15;100.00
61119;BME280;51448;51.660;5.824;2023-01-19T12:04:00;100449.13;;;3.21;100.00
61119;BME280;51448;51.660;5.824;2023-01-19T12:06:42;100445.66;;;3.27;100.00
61119;BME280;51448;51.660;5.824;2023-01-19T12:09:19;100446.50;;;3.31;100.00
61119;BME280;51448;51.660;5.824;2023-01-19T12:12:32;100451.66;;;3.37;100.00
61119;BME280;51448;51.660;5.824;2023-01-19T12:15:10;100449.03;;;3.43;100.00
61119;BME280;51448;51.660;5.824;2023-01-19T12:17:58;100445.53;;;3.50;100.00
61119;BME280;51448;51.660;5.824;2023-01-19T12:20:42;100441.19;;;3.57;100.00
61119;BME280;51448;51.660;5.824;2023-01-19T12:26:34;100451.53;;;3.63;100.00
61119;BME280;51448;51.660;5.824;2023-01-19T12:29:12;100451.50;;;3.68;100.00
61119;BME280;51448;51.660;5.824;2023-01-19T12:31:42;100452.34;;;3.73;100.00
61119;BME280;51448;51.660;5.824;2023-01-19T12:34:27;100447.13;;;3.77;100.00
61119;BME280;51448;51.660;5.824;2023-01-19T12:37:02;100454.03;;;3.81;100.00
61119;BME280;51448;51.660;5.824;2023-01-19T12:39:32;100449.69;;;3.79;100.00
61119;BME280;51448;51.660;5.824;2023-01-19T12:42:10;100456.63;;;3.78;100.00
61119;BME280;51448;51.660;5.824;2023-01-19T12:44:41;100460.94;;;3.82;100.00
61119;BME280;51448;51.660;5.824;2023-01-19T12:49:50;100457.41;;;3.93;100.00
61119;BME280;51448;51.660;5.824;2023-01-19T12:52:27;100457.38;;;3.97;100.00
61119;BME280;51448;51.660;5.824;2023-01-19T13:02:49;100463.28;;;4.18;100.00
61119;BME280;51448;51.660;5.824;2023-01-19T13:21:35;100464.78;;;4.47;100.00
61119;BME280;51448;51.660;5.824;2023-01-19T13:24:06;100471.75;;;4.44;100.00
61119;BME280;51448;51.660;5.824;2023-01-19T13:32:12;100469.94;;;4.53;100.00
61119;BME280;51448;51.660;5.824;2023-01-19T13:34:49;100469.09;;;4.55;100.00
61119;BME280;51448;51.660;5.824;2023-01-19T13:37:22;100462.97;;;4.55;100.00
61119;BME280;51448;51.660;5.824;2023-01-19T13:39:55;100464.72;;;4.56;100.00
61119;BME280;51448;51.660;5.824;2023-01-19T13:42:35;100455.16;;;4.58;100.00
61119;BME280;51448;51.660;5.824;2023-01-19T13:45:16;100459.47;;;4.59;100.00
61119;BME280;51448;51.660;5.824;2023-01-19T13:47:53;100479.47;;;4.57;100.00
61119;BME280;51448;51.660;5.824;2023-01-19T13:50:26;100468.25;;;4.49;100.00
61119;BME280;51448;51.660;5.824;2023-01-19T13:52:58;100474.34;;;4.48;100.00
61119;BME280;51448;51.660;5.824;2023-01-19T13:55:29;100478.66;;;4.52;100.00
61119;BME280;51448;51.660;5.824;2023-01-19T13:57:58;100476.91;;;4.54;100.00
61119;BME280;51448;51.660;5.824;2023-01-19T14:00:27;100473.41;;;4.55;100.00
61119;BME280;51448;51.660;5.824;2023-01-19T14:03:15;100479.44;;;4.58;100.00
61119;BME280;51448;51.660;5.824;2023-01-19T14:05:52;100483.81;;;4.55;100.00
61119;BME280;51448;51.660;5.824;2023-01-19T14:08:21;100476.91;;;4.51;100.00
61119;BME280;51448;51.660;5.824;2023-01-19T14:13:34;100481.31;;;4.47;100.00
61119;BME280;51448;51.660;5.824;2023-01-19T14:16:14;100485.63;;;4.48;100.00
61119;BME280;51448;51.660;5.824;2023-01-19T14:18:43;100489.97;;;4.49;100.00
61119;BME280;51448;51.660;5.824;2023-01-19T14:21:13;100493.44;;;4.47;100.00
61119;BME280;51448;51.660;5.824;2023-01-19T14:23:50;100489.13;;;4.46;100.00
61119;BME280;51448;51.660;5.824;2023-01-19T14:26:47;100495.22;;;4.43;100.00
61119;BME280;51448;51.660;5.824;2023-01-19T14:29:33;100500.44;;;4.40;100.00
61119;BME280;51448;51.660;5.824;2023-01-19T14:32:18;100499.59;;;4.36;99.92
61119;BME280;51448;51.660;5.824;2023-01-19T14:34:51;100498.78;;;4.31;100.00
61119;BME280;51448;51.660;5.824;2023-01-19T14:37:25;100493.63;;;4.23;99.50
61119;BME280;51448;51.660;5.824;2023-01-19T14:40:00;100492.78;;;4.21;100.00
61119;BME280;51448;51.660;5.824;2023-01-19T14:42:34;100499.75;;;4.18;99.56
61119;BME280;51448;51.660;5.824;2023-01-19T14:45:17;100499.78;;;4.12;99.76
61119;BME280;51448;51.660;5.824;2023-01-19T14:48:00;100507.63;;;4.09;99.99
61119;BME280;51448;51.660;5.824;2023-01-19T14:50:36;100500.72;;;4.03;99.95
61119;BME280;51448;51.660;5.824;2023-01-19T14:53:20;100506.81;;;3.97;100.00
61119;BME280;51448;51.660;5.824;2023-01-19T14:58:27;100509.53;;;3.82;100.00